Terminal Aerodrome Forecast
Issued by NWS

Current Version | Previous Version | Text Only | Print | Product List | Glossary On
Versions: 1 2 3 4 5 6 7 8 9 10 11 12 13 14 15 16 17 18 19 20 21 22 23 24
406
FTUS46 KSEW 232112 AAA
TAFSEA
TAF AMD
KSEA 232112Z 2321/2424 13009KT P6SM SCT040 BKN100 OVC150
     FM240200 12009KT P6SM -RA OVC040
     FM241200 15010KT P6SM -RA OVC035
     FM241500 18013KT P6SM -SHRA BKN035 OVC050
     FM242000 21014G22KT P6SM -SHRA SCT025 BKN050=

USA.gov is the U.S. government's official web portal to all federal, state and local government web resources and services.